FIMP/MRU METAR and TAF weather

Enter ICAO airport designator
Station Type Date Time Source
FIMP METAR 2022/12/05 15:00 UTC NOAA

FIMP 051500Z 16007KT 9999 SCT016 SCT250 25/20 Q1016


Station Type Date Time Source
FIMP Decoded METAR 2022/12/05 15:00 UTC NOAA

Plaisance Mauritius , Mauritius (FIMP) 20-26S 057-40E 57M
Dec 05, 2022 - 10:00 AM EST / 2022.12.05 1500 UTC
Wind: from the SSE (160 degrees) at 8 MPH (7 KT):0
Visibility: greater than 7 mile(s):0
Sky conditions: partly cloudy
Temperature: 77 F (25 C)
Dew Point: 68 F (20 C)
Relative Humidity: 73%
Pressure (altimeter): 30.00 in. Hg (1016 hPa)
ob: FIMP 051500Z 16007KT 9999 SCT016 SCT250 25/20 Q1016
cycle: 15

Station Type Date Time Source
FIMP TAF 2022/12/05 12:39 UTC NOAA

TAF TAF COR FIMP 051115Z 0512/0618 12012KT 9999 SCT017 PROB30
TEMPO 0600/0608 7000 -SHRA BKN016

Example: see airport list